Time;durP1;ratioP1;P1;durP2;ratioP2;P2;SDS_P1;SDS_P2;PMS_P1;PMS_P2;Temp;Humidity;BMP_temperature;BMP_pressure;BME280_temperature;BME280_humidity;BME280_pressure;Samples;Min_cycle;Max_cycle;Signal;HPM_P1;HPM_P2
2021/05/07 00:01:50;;;;;;;;;;;23.90;36.90;;;;;;491553;240;1194;-44
2021/05/07 00:03:52;;;;;;;;;;;23.90;36.90;;;;;;491594;240;1167;-44
2021/05/07 00:05:54;;;;;;;;;;;23.90;36.90;;;;;;491573;240;1142;-45
2021/05/07 00:07:56;;;;;;;;;;;24.00;36.90;;;;;;491511;240;1130;-44
2021/05/07 00:09:57;;;;;;;;;;;23.90;36.90;;;;;;491839;240;1054;-44
2021/05/07 00:11:58;;;;;;;;;;;23.90;36.90;;;;;;491877;240;1228;-45
2021/05/07 00:13:59;;;;;;;;;;;23.90;36.90;;;;;;492027;240;1041;-44
2021/05/07 00:16:01;;;;;;;;;;;24.00;36.90;;;;;;491542;240;1330;-44
2021/05/07 00:18:02;;;;;;;;;;;24.00;36.80;;;;;;491743;240;1283;-45
2021/05/07 00:20:03;;;;;;;;;;;24.00;36.90;;;;;;491539;240;2192;-44
2021/05/07 00:22:05;;;;;;;;;;;24.00;36.80;;;;;;491494;240;1250;-45
2021/05/07 00:24:06;;;;;;;;;;;24.00;36.70;;;;;;491977;240;1106;-44
2021/05/07 00:26:07;;;;;;;;;;;24.00;36.80;;;;;;491703;240;1216;-45
2021/05/07 00:28:08;;;;;;;;;;;24.00;36.90;;;;;;491578;240;1057;-44
2021/05/07 00:30:10;;;;;;;;;;;24.00;36.80;;;;;;491706;240;1079;-44
2021/05/07 00:32:11;;;;;;;;;;;23.90;37.00;;;;;;491601;240;1188;-44
2021/05/07 00:34:12;;;;;;;;;;;24.00;36.90;;;;;;491612;240;1207;-44
2021/05/07 00:36:14;;;;;;;;;;;24.00;36.90;;;;;;491587;240;1154;-44
2021/05/07 00:38:15;;;;;;;;;;;23.90;36.90;;;;;;492003;240;1081;-44
2021/05/07 00:40:16;;;;;;;;;;;24.00;36.90;;;;;;491649;240;2180;-44
2021/05/07 00:42:18;;;;;;;;;;;24.00;36.90;;;;;;491686;240;1418;-44
2021/05/07 00:44:19;;;;;;;;;;;24.00;36.80;;;;;;491766;240;1201;-45
2021/05/07 00:46:20;;;;;;;;;;;24.00;36.80;;;;;;491345;240;1167;-45
2021/05/07 00:48:21;;;;;;;;;;;24.00;36.80;;;;;;491492;240;1272;-45
2021/05/07 00:50:22;;;;;;;;;;;24.00;36.90;;;;;;491554;240;1066;-44
2021/05/07 00:52:24;;;;;;;;;;;24.00;36.90;;;;;;491408;240;1414;-44
2021/05/07 00:54:25;;;;;;;;;;;24.00;36.90;;;;;;491775;240;1093;-44
2021/05/07 00:56:27;;;;;;;;;;;24.00;36.80;;;;;;491477;240;1148;-44
2021/05/07 00:58:28;;;;;;;;;;;24.00;37.00;;;;;;491571;240;2238;-44
2021/05/07 01:00:30;;;;;;;;;;;24.00;36.90;;;;;;491632;240;2176;-44
2021/05/07 01:02:30;;;;;;;;;;;24.00;36.80;;;;;;491471;240;2488;-44
2021/05/07 01:04:32;;;;;;;;;;;24.00;36.90;;;;;;491595;240;1243;-44
2021/05/07 01:06:33;;;;;;;;;;;24.00;36.90;;;;;;491523;240;1136;-44
2021/05/07 01:08:34;;;;;;;;;;;24.00;36.90;;;;;;491587;240;1212;-45
2021/05/07 01:10:36;;;;;;;;;;;24.10;36.80;;;;;;491468;240;1258;-44
2021/05/07 01:12:37;;;;;;;;;;;24.00;36.80;;;;;;491903;240;1162;-44
2021/05/07 01:14:38;;;;;;;;;;;24.00;36.80;;;;;;491725;240;1258;-44
2021/05/07 01:16:40;;;;;;;;;;;24.00;36.90;;;;;;491679;240;1254;-44
2021/05/07 01:18:41;;;;;;;;;;;24.10;36.90;;;;;;491766;240;1155;-44
2021/05/07 01:20:42;;;;;;;;;;;24.00;36.80;;;;;;491733;240;2145;-44
2021/05/07 01:22:44;;;;;;;;;;;24.10;36.80;;;;;;492022;240;1267;-44
2021/05/07 01:24:45;;;;;;;;;;;24.00;36.90;;;;;;491967;240;1037;-45
2021/05/07 01:26:46;;;;;;;;;;;24.00;36.80;;;;;;491957;240;1030;-44
2021/05/07 01:28:48;;;;;;;;;;;24.00;36.80;;;;;;492035;240;1083;-44
2021/05/07 01:30:49;;;;;;;;;;;24.10;36.80;;;;;;491637;240;1404;-44
2021/05/07 01:32:50;;;;;;;;;;;24.00;36.90;;;;;;491673;240;1097;-44
2021/05/07 01:34:52;;;;;;;;;;;24.00;36.80;;;;;;491588;240;1165;-44
2021/05/07 01:36:53;;;;;;;;;;;24.10;36.90;;;;;;491442;240;1873;-45
2021/05/07 01:38:54;;;;;;;;;;;24.10;36.70;;;;;;491550;240;1068;-44
2021/05/07 01:40:55;;;;;;;;;;;24.10;36.70;;;;;;491478;240;2184;-44
2021/05/07 01:42:56;;;;;;;;;;;24.10;36.80;;;;;;491434;240;1285;-44
2021/05/07 01:44:58;;;;;;;;;;;24.10;36.80;;;;;;491936;240;1062;-44
2021/05/07 01:46:59;;;;;;;;;;;24.10;36.70;;;;;;491423;240;1167;-45
2021/05/07 01:49:00;;;;;;;;;;;24.10;36.80;;;;;;491863;240;1115;-44
2021/05/07 01:51:02;;;;;;;;;;;24.10;36.80;;;;;;491454;240;1488;-44
2021/05/07 01:53:03;;;;;;;;;;;24.10;36.80;;;;;;492034;240;1036;-44
2021/05/07 01:55:06;;;;;;;;;;;24.10;36.80;;;;;;491669;240;1052;-45
2021/05/07 01:57:05;;;;;;;;;;;24.10;36.70;;;;;;491468;240;1475;-45
2021/05/07 01:59:07;;;;;;;;;;;24.20;36.80;;;;;;491826;240;1038;-44
2021/05/07 02:01:08;;;;;;;;;;;24.10;36.70;;;;;;491672;240;2129;-44
2021/05/07 02:03:09;;;;;;;;;;;24.20;36.80;;;;;;491965;240;1056;-45
2021/05/07 02:05:11;;;;;;;;;;;24.20;36.70;;;;;;491575;240;1184;-45
2021/05/07 02:07:12;;;;;;;;;;;24.20;36.70;;;;;;491391;240;1550;-44
2021/05/07 02:09:13;;;;;;;;;;;24.10;36.80;;;;;;491670;240;1049;-44
2021/05/07 02:11:14;;;;;;;;;;;24.10;36.80;;;;;;491529;240;1256;-45
2021/05/07 02:13:16;;;;;;;;;;;24.20;36.80;;;;;;491508;240;1234;-44
2021/05/07 02:15:17;;;;;;;;;;;24.20;36.80;;;;;;491978;240;1084;-45
2021/05/07 02:17:18;;;;;;;;;;;24.20;36.80;;;;;;491817;240;1303;-44
2021/05/07 02:19:19;;;;;;;;;;;24.10;36.80;;;;;;491905;240;1233;-44
2021/05/07 02:21:21;;;;;;;;;;;24.20;36.80;;;;;;491689;240;2191;-44
2021/05/07 02:23:22;;;;;;;;;;;24.20;36.70;;;;;;491586;240;1214;-44
2021/05/07 02:25:23;;;;;;;;;;;24.20;36.70;;;;;;491777;240;1122;-44
2021/05/07 02:27:25;;;;;;;;;;;24.20;36.90;;;;;;491765;240;1309;-44
2021/05/07 02:29:26;;;;;;;;;;;24.10;36.80;;;;;;491803;240;1044;-44
2021/05/07 02:31:27;;;;;;;;;;;24.20;36.80;;;;;;491689;240;1163;-45
2021/05/07 02:33:28;;;;;;;;;;;24.20;36.80;;;;;;491473;240;1091;-44
2021/05/07 02:35:30;;;;;;;;;;;24.20;36.80;;;;;;491498;240;1241;-44
2021/05/07 02:37:31;;;;;;;;;;;24.20;36.80;;;;;;491766;240;1230;-44
2021/05/07 02:39:32;;;;;;;;;;;24.20;36.80;;;;;;491439;240;1076;-44
2021/05/07 02:41:35;;;;;;;;;;;24.20;36.80;;;;;;491499;240;2128;-45
2021/05/07 02:43:35;;;;;;;;;;;24.20;36.70;;;;;;491562;240;2415;-44
2021/05/07 02:45:36;;;;;;;;;;;24.20;36.80;;;;;;491950;240;1093;-45
2021/05/07 02:47:38;;;;;;;;;;;24.20;36.70;;;;;;491721;240;1182;-44
2021/05/07 02:49:39;;;;;;;;;;;24.20;36.70;;;;;;491688;240;1183;-44
2021/05/07 02:51:40;;;;;;;;;;;24.20;36.70;;;;;;491922;240;1220;-44
2021/05/07 02:53:41;;;;;;;;;;;24.30;36.70;;;;;;491880;240;1086;-44
2021/05/07 02:55:43;;;;;;;;;;;24.20;36.70;;;;;;491506;240;1175;-44
2021/05/07 02:57:44;;;;;;;;;;;24.20;36.70;;;;;;491586;240;1206;-44
2021/05/07 02:59:45;;;;;;;;;;;24.20;36.70;;;;;;491460;240;1222;-44
2021/05/07 03:01:47;;;;;;;;;;;24.30;36.70;;;;;;491600;240;2101;-44
2021/05/07 03:03:48;;;;;;;;;;;24.30;36.70;;;;;;491827;240;1047;-44
2021/05/07 03:05:49;;;;;;;;;;;24.20;36.70;;;;;;491615;240;1484;-44
2021/05/07 03:07:50;;;;;;;;;;;24.20;36.80;;;;;;491518;240;1139;-44
2021/05/07 03:09:52;;;;;;;;;;;24.20;36.70;;;;;;491532;240;1053;-44
2021/05/07 03:11:54;;;;;;;;;;;24.20;36.80;;;;;;491445;240;1304;-44
2021/05/07 03:13:54;;;;;;;;;;;24.20;36.80;;;;;;491553;240;2197;-44
2021/05/07 03:15:56;;;;;;;;;;;24.20;36.80;;;;;;491991;240;1159;-45
2021/05/07 03:17:57;;;;;;;;;;;24.20;36.80;;;;;;491629;240;1241;-45
2021/05/07 03:19:58;;;;;;;;;;;24.20;36.80;;;;;;491577;240;1156;-44
2021/05/07 03:21:59;;;;;;;;;;;24.20;36.90;;;;;;491518;240;2180;-45
2021/05/07 03:24:01;;;;;;;;;;;24.20;36.70;;;;;;491810;240;1124;-45
2021/05/07 03:26:02;;;;;;;;;;;24.30;36.70;;;;;;491612;240;1165;-44
2021/05/07 03:28:03;;;;;;;;;;;24.30;36.80;;;;;;491465;240;1063;-44
2021/05/07 03:30:04;;;;;;;;;;;24.30;36.70;;;;;;491843;240;1079;-44
2021/05/07 03:32:06;;;;;;;;;;;24.30;36.80;;;;;;491395;240;1189;-44
2021/05/07 03:34:07;;;;;;;;;;;24.20;36.80;;;;;;491502;240;1058;-44
2021/05/07 03:36:08;;;;;;;;;;;24.30;36.70;;;;;;491629;240;1457;-45
2021/05/07 03:38:10;;;;;;;;;;;24.30;36.70;;;;;;491984;240;1154;-44
2021/05/07 03:40:11;;;;;;;;;;;24.30;36.70;;;;;;491571;240;2191;-44
2021/05/07 03:42:12;;;;;;;;;;;24.30;36.80;;;;;;491952;240;1192;-44
2021/05/07 03:44:13;;;;;;;;;;;24.30;36.70;;;;;;491908;240;1246;-44
2021/05/07 03:46:15;;;;;;;;;;;24.30;36.80;;;;;;491520;240;1136;-44
2021/05/07 03:48:16;;;;;;;;;;;24.20;36.90;;;;;;491826;240;1163;-44
2021/05/07 03:50:17;;;;;;;;;;;24.30;36.80;;;;;;491493;240;1136;-44
2021/05/07 03:52:19;;;;;;;;;;;24.30;36.70;;;;;;491739;240;1187;-44
2021/05/07 03:54:20;;;;;;;;;;;24.30;36.70;;;;;;491581;240;1075;-44
2021/05/07 03:56:21;;;;;;;;;;;24.30;36.80;;;;;;491587;240;1118;-45
2021/05/07 03:58:22;;;;;;;;;;;24.30;36.80;;;;;;491525;240;1068;-44
2021/05/07 04:00:25;;;;;;;;;;;24.30;36.80;;;;;;491967;240;2124;-45
2021/05/07 04:02:25;;;;;;;;;;;24.30;36.70;;;;;;491512;240;2138;-44
2021/05/07 04:04:26;;;;;;;;;;;24.30;36.70;;;;;;491677;240;1102;-45
2021/05/07 04:06:28;;;;;;;;;;;24.30;36.80;;;;;;491666;240;1172;-44
2021/05/07 04:08:31;;;;;;;;;;;24.30;36.70;;;;;;492012;240;1177;-44
2021/05/07 04:10:32;;;;;;;;;;;24.30;36.70;;;;;;491594;240;2171;-44
2021/05/07 04:14:52;;;;;;;;;;;24.30;36.80;;;;;;491465;240;1280;-45
2021/05/07 04:16:53;;;;;;;;;;;24.30;36.80;;;;;;491357;240;1371;-44
2021/05/07 04:18:55;;;;;;;;;;;24.40;36.80;;;;;;491500;240;1091;-44
2021/05/07 04:20:57;;;;;;;;;;;24.40;36.70;;;;;;491696;240;2164;-44
2021/05/07 04:22:58;;;;;;;;;;;24.40;36.80;;;;;;491383;240;1177;-44
2021/05/07 04:24:59;;;;;;;;;;;24.40;36.70;;;;;;491661;240;1073;-44
2021/05/07 04:27:01;;;;;;;;;;;24.40;36.70;;;;;;491399;240;1208;-44
2021/05/07 04:29:03;;;;;;;;;;;24.40;36.70;;;;;;491740;240;1049;-44
2021/05/07 04:31:03;;;;;;;;;;;24.40;36.70;;;;;;491661;240;2302;-45
2021/05/07 04:33:04;;;;;;;;;;;24.40;36.80;;;;;;491518;240;1254;-44
2021/05/07 04:35:06;;;;;;;;;;;24.40;36.70;;;;;;491526;240;1069;-45
2021/05/07 04:37:07;;;;;;;;;;;24.40;36.70;;;;;;491392;240;1276;-44
2021/05/07 04:39:09;;;;;;;;;;;24.40;36.80;;;;;;491465;240;1034;-44
2021/05/07 04:41:10;;;;;;;;;;;24.40;36.80;;;;;;491640;240;2153;-44
2021/05/07 04:43:11;;;;;;;;;;;24.40;36.70;;;;;;491483;240;1209;-44
2021/05/07 04:45:12;;;;;;;;;;;24.40;36.70;;;;;;491476;240;1147;-44
2021/05/07 04:47:14;;;;;;;;;;;24.40;36.80;;;;;;491468;240;1634;-44
2021/05/07 04:49:15;;;;;;;;;;;24.30;36.90;;;;;;491334;240;1068;-45
2021/05/07 04:51:17;;;;;;;;;;;24.40;36.80;;;;;;491343;240;1544;-44
2021/05/07 04:53:18;;;;;;;;;;;24.50;36.80;;;;;;491838;240;1040;-44
2021/05/07 04:55:19;;;;;;;;;;;24.40;36.70;;;;;;491434;240;1056;-44
2021/05/07 04:57:20;;;;;;;;;;;24.40;36.80;;;;;;491332;240;1330;-44
2021/05/07 04:59:22;;;;;;;;;;;24.40;36.70;;;;;;491756;240;1309;-45
2021/05/07 05:01:23;;;;;;;;;;;24.40;36.70;;;;;;491310;240;2125;-44
2021/05/07 05:03:24;;;;;;;;;;;24.40;36.70;;;;;;491346;240;1042;-44
2021/05/07 05:05:26;;;;;;;;;;;24.40;36.80;;;;;;491446;240;1341;-44
2021/05/07 05:07:27;;;;;;;;;;;24.40;36.80;;;;;;491231;240;1186;-44
2021/05/07 05:09:28;;;;;;;;;;;24.40;36.70;;;;;;491312;240;1063;-44
2021/05/07 05:11:29;;;;;;;;;;;24.40;36.80;;;;;;491391;240;1394;-45
2021/05/07 05:13:31;;;;;;;;;;;24.40;36.80;;;;;;491288;240;1125;-45
2021/05/07 05:15:32;;;;;;;;;;;24.40;36.70;;;;;;491446;240;1236;-44
2021/05/07 05:17:34;;;;;;;;;;;24.50;36.70;;;;;;491485;240;1231;-44
2021/05/07 05:19:35;;;;;;;;;;;24.50;36.70;;;;;;491301;240;1068;-44
2021/05/07 05:21:36;;;;;;;;;;;24.50;36.70;;;;;;491261;240;2200;-45
2021/05/07 05:23:38;;;;;;;;;;;24.50;36.70;;;;;;491517;240;1255;-45
2021/05/07 05:25:39;;;;;;;;;;;24.40;36.70;;;;;;491206;240;1197;-44
2021/05/07 05:27:41;;;;;;;;;;;24.50;36.80;;;;;;491491;240;1071;-44
2021/05/07 05:29:42;;;;;;;;;;;24.40;36.70;;;;;;491264;240;1122;-44
2021/05/07 05:31:44;;;;;;;;;;;24.50;36.70;;;;;;491256;240;1173;-45
2021/05/07 05:33:45;;;;;;;;;;;24.50;36.70;;;;;;491297;240;1056;-44
2021/05/07 05:35:47;;;;;;;;;;;24.50;36.80;;;;;;491383;240;1517;-44
2021/05/07 05:37:48;;;;;;;;;;;24.50;36.80;;;;;;491254;240;1237;-44
2021/05/07 05:39:49;;;;;;;;;;;24.50;36.70;;;;;;491114;240;1309;-44
2021/05/07 05:41:51;;;;;;;;;;;24.50;36.70;;;;;;490955;240;2187;-44
2021/05/07 05:43:52;;;;;;;;;;;24.50;36.70;;;;;;491080;240;1131;-44
2021/05/07 05:45:54;;;;;;;;;;;24.40;36.80;;;;;;491120;240;1239;-45
2021/05/07 05:47:55;;;;;;;;;;;24.20;37.10;;;;;;491169;240;1154;-45
2021/05/07 05:49:56;;;;;;;;;;;23.40;38.40;;;;;;491243;240;1153;-44
2021/05/07 05:51:57;;;;;;;;;;;22.80;39.60;;;;;;491080;240;1168;-44
2021/05/07 05:53:59;;;;;;;;;;;22.40;40.50;;;;;;491688;240;1198;-44
2021/05/07 05:56:00;;;;;;;;;;;22.10;41.20;;;;;;491469;240;1168;-44
2021/05/07 05:58:01;;;;;;;;;;;21.80;41.90;;;;;;491159;240;1060;-44
2021/05/07 06:00:02;;;;;;;;;;;21.60;42.40;;;;;;491348;240;1087;-44
2021/05/07 06:02:04;;;;;;;;;;;21.40;42.60;;;;;;491293;240;2187;-44
2021/05/07 06:04:05;;;;;;;;;;;21.30;43.00;;;;;;491385;240;1147;-44
2021/05/07 06:06:06;;;;;;;;;;;21.20;43.20;;;;;;491312;240;1259;-44
2021/05/07 06:08:08;;;;;;;;;;;21.10;43.40;;;;;;491104;240;1538;-44
2021/05/07 06:10:10;;;;;;;;;;;21.00;43.50;;;;;;491267;240;1076;-44
2021/05/07 06:12:10;;;;;;;;;;;21.00;43.70;;;;;;491035;240;2190;-44
2021/05/07 06:14:11;;;;;;;;;;;20.90;43.60;;;;;;491239;240;1235;-44
2021/05/07 06:16:13;;;;;;;;;;;20.90;43.80;;;;;;490962;240;1310;-44
2021/05/07 06:18:14;;;;;;;;;;;20.90;43.70;;;;;;491195;240;1153;-44
2021/05/07 06:20:15;;;;;;;;;;;20.80;43.90;;;;;;491188;240;1059;-44
2021/05/07 06:22:16;;;;;;;;;;;20.70;44.10;;;;;;491118;240;2184;-44
2021/05/07 06:24:18;;;;;;;;;;;20.70;44.20;;;;;;491274;240;1569;-44
2021/05/07 06:26:20;;;;;;;;;;;20.70;44.20;;;;;;491297;240;1402;-44
2021/05/07 06:28:20;;;;;;;;;;;20.60;44.20;;;;;;491023;240;2189;-44
2021/05/07 06:30:22;;;;;;;;;;;20.50;44.30;;;;;;491099;240;1204;-44
2021/05/07 06:32:23;;;;;;;;;;;20.50;44.40;;;;;;491031;240;1270;-44
2021/05/07 06:34:24;;;;;;;;;;;20.40;44.50;;;;;;490992;240;1145;-44
2021/05/07 06:36:28;;;;;;;;;;;20.40;44.70;;;;;;490936;240;1280;-44
2021/05/07 06:38:27;;;;;;;;;;;20.30;44.70;;;;;;490990;240;2046;-44
2021/05/07 06:40:28;;;;;;;;;;;20.20;44.80;;;;;;491057;240;1179;-44
2021/05/07 06:42:32;;;;;;;;;;;20.20;44.90;;;;;;490943;240;2158;-44
2021/05/07 06:44:31;;;;;;;;;;;20.20;45.00;;;;;;491274;240;1851;-44
2021/05/07 06:46:32;;;;;;;;;;;20.20;44.90;;;;;;491063;240;1288;-43
2021/05/07 06:48:34;;;;;;;;;;;20.20;44.90;;;;;;491360;240;1085;-44
2021/05/07 06:50:35;;;;;;;;;;;20.20;44.90;;;;;;490887;240;1203;-44
2021/05/07 06:52:36;;;;;;;;;;;20.10;44.90;;;;;;491046;240;1319;-43
2021/05/07 06:54:37;;;;;;;;;;;20.10;45.00;;;;;;489516;241;1286;-44
2021/05/07 06:56:39;;;;;;;;;;;20.00;45.10;;;;;;490917;240;1148;-44
2021/05/07 06:58:40;;;;;;;;;;;20.00;45.30;;;;;;490854;240;1082;-44
2021/05/07 07:00:41;;;;;;;;;;;20.00;45.30;;;;;;490903;240;1074;-44
2021/05/07 07:02:43;;;;;;;;;;;20.00;45.30;;;;;;490846;240;2179;-44
2021/05/07 07:04:45;;;;;;;;;;;19.90;45.30;;;;;;491241;240;1283;-44
2021/05/07 07:06:47;;;;;;;;;;;19.90;45.40;;;;;;491076;240;1121;-44
2021/05/07 07:08:48;;;;;;;;;;;19.90;45.40;;;;;;491031;240;1182;-44
2021/05/07 07:10:49;;;;;;;;;;;19.90;45.40;;;;;;490953;240;1111;-44
2021/05/07 07:12:50;;;;;;;;;;;19.90;45.40;;;;;;490961;240;1326;-44
2021/05/07 07:14:52;;;;;;;;;;;19.90;45.40;;;;;;490993;240;1180;-44
2021/05/07 07:16:53;;;;;;;;;;;19.80;45.40;;;;;;490989;240;1296;-44
2021/05/07 07:18:54;;;;;;;;;;;19.80;45.40;;;;;;490887;240;1098;-44
2021/05/07 07:20:56;;;;;;;;;;;19.80;45.40;;;;;;491218;240;1202;-44
2021/05/07 07:22:58;;;;;;;;;;;19.80;45.40;;;;;;490865;240;2196;-44
2021/05/07 07:24:58;;;;;;;;;;;19.80;45.50;;;;;;490904;240;1274;-44
2021/05/07 07:26:59;;;;;;;;;;;19.70;45.50;;;;;;491047;240;1142;-44
2021/05/07 07:29:01;;;;;;;;;;;19.70;45.60;;;;;;491090;240;1107;-44
2021/05/07 07:31:02;;;;;;;;;;;19.70;45.60;;;;;;490865;240;1284;-44
2021/05/07 07:33:03;;;;;;;;;;;19.70;45.70;;;;;;491306;240;1066;-44
2021/05/07 07:35:05;;;;;;;;;;;19.70;45.60;;;;;;491006;240;1334;-44
2021/05/07 07:37:06;;;;;;;;;;;19.70;45.60;;;;;;490897;240;1288;-44
2021/05/07 07:39:07;;;;;;;;;;;19.70;45.60;;;;;;491079;240;1232;-44
2021/05/07 07:41:08;;;;;;;;;;;19.70;45.50;;;;;;491537;240;1161;-44
2021/05/07 07:43:10;;;;;;;;;;;19.70;45.40;;;;;;490993;240;2176;-44
2021/05/07 07:45:11;;;;;;;;;;;19.60;45.50;;;;;;490856;240;1343;-44
2021/05/07 07:47:13;;;;;;;;;;;19.60;45.70;;;;;;490798;240;1154;-44
2021/05/07 07:49:14;;;;;;;;;;;19.60;45.70;;;;;;490824;240;1305;-44
2021/05/07 07:51:15;;;;;;;;;;;19.50;45.70;;;;;;490649;240;1132;-44
2021/05/07 07:53:16;;;;;;;;;;;19.50;45.70;;;;;;490850;240;1348;-44
2021/05/07 07:55:18;;;;;;;;;;;19.50;45.70;;;;;;490758;240;1261;-44
2021/05/07 07:57:19;;;;;;;;;;;19.50;45.70;;;;;;490757;240;1061;-44
2021/05/07 07:59:20;;;;;;;;;;;19.50;45.70;;;;;;490694;240;1249;-44
2021/05/07 08:01:22;;;;;;;;;;;19.50;45.80;;;;;;490703;240;1119;-44
2021/05/07 08:03:23;;;;;;;;;;;19.40;45.90;;;;;;490594;240;2120;-44
2021/05/07 08:05:24;;;;;;;;;;;19.50;45.80;;;;;;490525;240;1329;-44
2021/05/07 08:07:25;;;;;;;;;;;19.50;45.70;;;;;;490847;240;1455;-44
2021/05/07 08:09:27;;;;;;;;;;;19.40;45.70;;;;;;491157;240;1265;-44
2021/05/07 08:11:28;;;;;;;;;;;19.40;45.90;;;;;;490783;240;1237;-44
2021/05/07 08:13:30;;;;;;;;;;;19.40;46.00;;;;;;490667;240;1233;-44
2021/05/07 08:15:31;;;;;;;;;;;19.30;45.90;;;;;;490182;240;1327;-44
2021/05/07 08:17:32;;;;;;;;;;;19.40;45.90;;;;;;491341;240;1168;-44
2021/05/07 08:19:34;;;;;;;;;;;19.40;46.00;;;;;;490656;240;1181;-44
2021/05/07 08:21:35;;;;;;;;;;;19.30;46.00;;;;;;490635;240;1274;-44
2021/05/07 08:23:36;;;;;;;;;;;19.30;46.00;;;;;;490603;240;2195;-43
2021/05/07 08:25:37;;;;;;;;;;;19.30;46.00;;;;;;491058;240;1153;-44
2021/05/07 08:27:39;;;;;;;;;;;19.30;45.90;;;;;;491521;240;1089;-44
2021/05/07 08:29:40;;;;;;;;;;;19.30;46.00;;;;;;491107;240;1254;-44
2021/05/07 08:31:44;;;;;;;;;;;19.30;46.00;;;;;;490983;240;1064;-44
2021/05/07 08:33:43;;;;;;;;;;;19.30;46.00;;;;;;490834;240;2242;-44
2021/05/07 08:35:44;;;;;;;;;;;19.30;46.00;;;;;;490866;240;1356;-44
2021/05/07 08:37:46;;;;;;;;;;;19.20;46.00;;;;;;490865;240;1231;-44
2021/05/07 08:39:47;;;;;;;;;;;19.30;46.00;;;;;;490550;240;1302;-44
2021/05/07 08:41:49;;;;;;;;;;;19.30;45.90;;;;;;490879;240;2185;-44
2021/05/07 08:43:52;;;;;;;;;;;19.30;46.00;;;;;;490762;240;1113;-44
2021/05/07 08:45:52;;;;;;;;;;;19.20;46.00;;;;;;490877;240;2154;-44
2021/05/07 08:47:53;;;;;;;;;;;19.20;46.00;;;;;;491578;240;1343;-44
2021/05/07 08:49:55;;;;;;;;;;;19.20;46.10;;;;;;491070;240;1065;-44
2021/05/07 08:51:56;;;;;;;;;;;19.10;46.10;;;;;;490954;240;2315;-44
2021/05/07 08:53:57;;;;;;;;;;;19.20;46.10;;;;;;490739;240;1295;-44
2021/05/07 08:55:58;;;;;;;;;;;19.10;46.10;;;;;;490906;240;1317;-44
2021/05/07 08:58:00;;;;;;;;;;;19.10;46.10;;;;;;491024;240;1504;-44
2021/05/07 09:00:01;;;;;;;;;;;19.10;46.10;;;;;;491047;240;1254;-44
2021/05/07 09:02:02;;;;;;;;;;;19.10;46.20;;;;;;491037;240;2209;-44
2021/05/07 09:04:04;;;;;;;;;;;19.10;46.20;;;;;;490719;240;1110;-44
2021/05/07 09:06:05;;;;;;;;;;;19.10;46.20;;;;;;490797;240;1361;-43
2021/05/07 09:08:06;;;;;;;;;;;19.00;46.20;;;;;;491026;240;1180;-44
2021/05/07 09:10:08;;;;;;;;;;;19.00;46.30;;;;;;490895;240;1468;-44
2021/05/07 09:12:09;;;;;;;;;;;19.00;46.30;;;;;;490957;240;1263;-44
2021/05/07 09:14:10;;;;;;;;;;;19.00;46.30;;;;;;490776;240;1109;-44
2021/05/07 09:16:11;;;;;;;;;;;19.00;46.30;;;;;;490740;240;1377;-44
2021/05/07 09:18:13;;;;;;;;;;;19.00;46.30;;;;;;491324;240;1316;-44
2021/05/07 09:20:14;;;;;;;;;;;19.00;46.30;;;;;;490857;240;1092;-44
2021/05/07 09:22:15;;;;;;;;;;;19.00;46.30;;;;;;490982;240;2200;-44
2021/05/07 09:24:17;;;;;;;;;;;19.00;46.40;;;;;;491096;240;1208;-44
2021/05/07 09:26:18;;;;;;;;;;;19.00;46.30;;;;;;490771;240;1270;-44
2021/05/07 09:28:19;;;;;;;;;;;18.90;46.30;;;;;;490866;240;1098;-43
2021/05/07 09:30:21;;;;;;;;;;;19.00;46.30;;;;;;490730;240;1107;-44
2021/05/07 09:32:23;;;;;;;;;;;18.90;46.30;;;;;;490895;240;1189;-44
2021/05/07 09:34:23;;;;;;;;;;;18.90;46.30;;;;;;491144;240;2271;-44
2021/05/07 09:36:25;;;;;;;;;;;18.90;46.30;;;;;;490961;240;1182;-44
2021/05/07 09:38:26;;;;;;;;;;;19.00;46.30;;;;;;491011;240;1084;-44
2021/05/07 09:40:27;;;;;;;;;;;18.90;46.20;;;;;;490915;240;1167;-44
2021/05/07 09:42:32;;;;;;;;;;;19.00;46.30;;;;;;490842;240;2199;-44
2021/05/07 09:44:30;;;;;;;;;;;19.00;46.20;;;;;;490851;240;1805;-44
2021/05/07 09:46:31;;;;;;;;;;;18.90;46.20;;;;;;490833;240;1243;-44
2021/05/07 09:48:33;;;;;;;;;;;18.90;46.30;;;;;;490781;240;1142;-44
2021/05/07 09:50:37;;;;;;;;;;;18.90;46.30;;;;;;490820;240;1285;-44
2021/05/07 09:52:36;;;;;;;;;;;18.90;46.40;;;;;;490964;240;2296;-44
2021/05/07 09:54:38;;;;;;;;;;;18.90;46.30;;;;;;490796;240;1314;-44
2021/05/07 09:56:39;;;;;;;;;;;18.90;46.30;;;;;;490698;240;1191;-44
2021/05/07 09:58:41;;;;;;;;;;;18.90;46.30;;;;;;490762;240;1156;-44
2021/05/07 10:00:42;;;;;;;;;;;18.90;46.20;;;;;;490480;240;1218;-44
2021/05/07 10:02:43;;;;;;;;;;;18.80;46.20;;;;;;490468;240;2176;-44
2021/05/07 10:04:44;;;;;;;;;;;18.80;46.20;;;;;;490541;240;1106;-44
2021/05/07 10:06:46;;;;;;;;;;;18.90;46.30;;;;;;490561;240;1248;-44
2021/05/07 10:08:47;;;;;;;;;;;18.90;46.30;;;;;;490762;240;1127;-44
2021/05/07 10:10:49;;;;;;;;;;;18.80;46.30;;;;;;490657;240;1136;-44
2021/05/07 10:12:53;;;;;;;;;;;18.80;46.40;;;;;;490763;240;1243;-44
2021/05/07 10:14:51;;;;;;;;;;;18.90;46.30;;;;;;490853;240;2117;-44
2021/05/07 10:16:53;;;;;;;;;;;18.80;46.30;;;;;;490726;240;1204;-44
2021/05/07 10:18:54;;;;;;;;;;;18.80;46.30;;;;;;491037;240;1098;-44
2021/05/07 10:20:55;;;;;;;;;;;18.80;46.40;;;;;;490879;240;1144;-44
2021/05/07 10:22:57;;;;;;;;;;;18.80;46.40;;;;;;490792;240;2187;-44
2021/05/07 10:24:58;;;;;;;;;;;18.80;46.30;;;;;;490865;240;1324;-44
2021/05/07 10:26:59;;;;;;;;;;;18.80;46.20;;;;;;491531;240;1241;-44
2021/05/07 10:29:00;;;;;;;;;;;18.80;46.30;;;;;;490856;240;1279;-44
2021/05/07 10:31:02;;;;;;;;;;;18.80;46.30;;;;;;490828;240;1366;-44
2021/05/07 10:33:03;;;;;;;;;;;18.70;46.30;;;;;;491231;240;1102;-44
2021/05/07 10:35:04;;;;;;;;;;;18.70;46.30;;;;;;490721;240;1095;-44
2021/05/07 10:37:06;;;;;;;;;;;18.80;46.40;;;;;;490790;240;1218;-44
2021/05/07 10:39:07;;;;;;;;;;;18.70;46.30;;;;;;491117;240;1149;-44
2021/05/07 10:41:08;;;;;;;;;;;18.70;46.30;;;;;;491347;240;1357;-44
2021/05/07 10:43:09;;;;;;;;;;;18.70;46.40;;;;;;490964;240;2149;-44
2021/05/07 10:45:11;;;;;;;;;;;18.70;46.30;;;;;;490649;240;1123;-44
2021/05/07 10:47:12;;;;;;;;;;;18.80;46.20;;;;;;490604;240;1234;-44
2021/05/07 10:49:14;;;;;;;;;;;18.80;46.20;;;;;;490880;240;1246;-44
2021/05/07 10:51:15;;;;;;;;;;;18.80;46.20;;;;;;490706;240;1247;-44
2021/05/07 10:53:16;;;;;;;;;;;18.80;46.10;;;;;;490733;240;1327;-44
2021/05/07 10:55:17;;;;;;;;;;;18.70;46.20;;;;;;490688;240;1244;-44
2021/05/07 10:57:19;;;;;;;;;;;18.70;46.30;;;;;;490919;240;1281;-44
2021/05/07 10:59:21;;;;;;;;;;;18.70;46.30;;;;;;490960;240;1277;-44
2021/05/07 11:01:22;;;;;;;;;;;18.70;46.30;;;;;;490749;240;1253;-44
2021/05/07 11:03:23;;;;;;;;;;;18.70;46.30;;;;;;490707;240;2148;-44
2021/05/07 11:05:24;;;;;;;;;;;18.70;46.20;;;;;;490062;240;1267;-44
2021/05/07 11:07:26;;;;;;;;;;;18.70;46.30;;;;;;490838;240;1232;-44
2021/05/07 11:09:27;;;;;;;;;;;18.70;46.20;;;;;;491198;240;1225;-44
2021/05/07 11:11:28;;;;;;;;;;;18.70;46.30;;;;;;490936;240;1260;-44
2021/05/07 11:13:30;;;;;;;;;;;18.70;46.30;;;;;;490815;240;1239;-44
2021/05/07 11:15:31;;;;;;;;;;;18.60;46.30;;;;;;490661;240;1101;-44
2021/05/07 11:17:32;;;;;;;;;;;18.60;46.40;;;;;;490657;240;1251;-44
2021/05/07 11:19:34;;;;;;;;;;;18.70;46.30;;;;;;490839;240;1097;-44
2021/05/07 11:21:35;;;;;;;;;;;18.60;46.30;;;;;;490957;240;1324;-44
2021/05/07 11:23:36;;;;;;;;;;;18.70;46.40;;;;;;490837;240;2184;-44
2021/05/07 11:25:37;;;;;;;;;;;18.70;46.30;;;;;;490900;240;1290;-43
2021/05/07 11:27:39;;;;;;;;;;;18.70;46.30;;;;;;490824;240;1174;-44
2021/05/07 11:29:40;;;;;;;;;;;18.60;46.30;;;;;;490877;240;1114;-44
2021/05/07 11:31:41;;;;;;;;;;;18.70;46.30;;;;;;490701;240;1320;-44
2021/05/07 11:33:43;;;;;;;;;;;18.70;46.10;;;;;;490746;240;1237;-44
2021/05/07 11:35:44;;;;;;;;;;;18.70;46.10;;;;;;490850;240;1272;-44
2021/05/07 11:37:45;;;;;;;;;;;18.70;46.10;;;;;;491141;240;1399;-44
2021/05/07 11:39:46;;;;;;;;;;;18.70;46.10;;;;;;490911;240;1075;-44
2021/05/07 11:41:48;;;;;;;;;;;18.70;46.10;;;;;;490781;240;1312;-44
2021/05/07 11:43:50;;;;;;;;;;;18.70;46.10;;;;;;490537;240;2195;-44
2021/05/07 11:45:51;;;;;;;;;;;18.60;46.20;;;;;;490910;240;1244;-44
2021/05/07 11:47:52;;;;;;;;;;;18.70;46.20;;;;;;490989;240;1302;-44
2021/05/07 11:49:53;;;;;;;;;;;18.60;46.10;;;;;;491634;240;880;-44
2021/05/07 11:51:54;;;;;;;;;;;18.60;46.20;;;;;;491588;240;1077;-43
2021/05/07 11:53:56;;;;;;;;;;;18.70;46.10;;;;;;490259;240;1087;-44
2021/05/07 11:55:57;;;;;;;;;;;18.70;46.10;;;;;;490887;240;1344;-44
2021/05/07 11:57:58;;;;;;;;;;;18.70;46.00;;;;;;491050;240;1084;-44
2021/05/07 12:00:00;;;;;;;;;;;18.60;46.10;;;;;;490944;240;1161;-44